createdAt,value
2022-07-25T00:00:14.248Z,8.95
2022-07-25T00:02:42.826Z,7.70
2022-07-25T00:05:11.323Z,7.60
2022-07-25T00:07:38.043Z,8.27
2022-07-25T00:10:05.070Z,7.30
2022-07-25T00:12:31.757Z,7.80
2022-07-25T00:14:58.446Z,7.72
2022-07-25T00:17:25.105Z,7.95
2022-07-25T00:19:51.723Z,7.57
2022-07-25T00:22:18.316Z,8.52
2022-07-25T00:24:44.939Z,7.93
2022-07-25T00:27:11.645Z,8.10
2022-07-25T00:29:38.305Z,7.90
2022-07-25T00:32:05.339Z,7.65
2022-07-25T00:34:32.023Z,8.20
2022-07-25T00:36:58.617Z,8.00
2022-07-25T00:39:25.235Z,8.20
2022-07-25T00:41:51.845Z,7.45
2022-07-25T00:44:25.494Z,8.30
2022-07-25T00:46:52.729Z,7.80
2022-07-25T00:49:19.490Z,7.78
2022-07-25T00:51:46.235Z,8.45
2022-07-25T00:54:12.960Z,8.52
2022-07-25T00:56:39.638Z,8.73
2022-07-25T00:59:06.357Z,8.75
2022-07-25T01:01:33.030Z,9.30
2022-07-25T01:03:59.738Z,8.73
2022-07-25T01:06:26.877Z,8.68
2022-07-25T01:08:54.053Z,8.35
2022-07-25T01:11:21.223Z,8.30
2022-07-25T01:13:47.824Z,8.73
2022-07-25T01:16:14.781Z,8.40
2022-07-25T01:18:41.418Z,8.93
2022-07-25T01:21:08.022Z,8.10
2022-07-25T01:23:34.673Z,8.55
2022-07-25T01:26:01.261Z,7.78
2022-07-25T01:28:27.934Z,8.57
2022-07-25T01:30:54.649Z,8.63
2022-07-25T01:33:21.622Z,8.52
2022-07-25T01:35:48.248Z,8.95
2022-07-25T01:38:15.002Z,8.45
2022-07-25T01:40:41.791Z,9.00
2022-07-25T01:43:08.441Z,8.73
2022-07-25T01:45:35.133Z,8.57
2022-07-25T01:48:01.738Z,9.32
2022-07-25T01:50:28.351Z,8.73
2022-07-25T01:52:54.945Z,8.27
2022-07-25T01:55:21.631Z,9.10
2022-07-25T01:57:49.714Z,9.32
2022-07-25T02:00:16.921Z,9.00
2022-07-25T02:02:43.971Z,8.73
2022-07-25T02:05:11.358Z,9.02
2022-07-25T02:07:38.100Z,9.10
2022-07-25T02:10:06.057Z,8.20
2022-07-25T02:12:32.742Z,9.10
2022-07-25T02:14:59.385Z,9.13
2022-07-25T02:17:26.107Z,8.75
2022-07-25T02:19:52.778Z,8.98
2022-07-25T02:22:19.447Z,9.23
2022-07-25T02:24:46.089Z,8.85
2022-07-25T02:27:12.690Z,9.57
2022-07-25T02:29:39.297Z,8.90
2022-07-25T02:32:06.278Z,9.82
2022-07-25T02:34:32.898Z,9.15
2022-07-25T02:36:59.507Z,8.60
2022-07-25T02:39:26.147Z,9.07
2022-07-25T02:41:52.749Z,9.45
2022-07-25T02:44:19.362Z,9.57
2022-07-25T02:46:45.976Z,9.60
2022-07-25T02:49:13.611Z,9.38
2022-07-25T02:51:40.273Z,9.75
2022-07-25T02:54:06.920Z,10.32
2022-07-25T02:56:33.509Z,9.43
2022-07-25T02:59:00.311Z,10.05
2022-07-25T03:01:27.126Z,9.07
2022-07-25T03:03:53.924Z,10.00
2022-07-25T03:06:20.541Z,10.00
2022-07-25T03:08:47.178Z,10.65
2022-07-25T03:11:14.138Z,10.40
2022-07-25T03:13:40.750Z,10.98
2022-07-25T03:16:07.795Z,10.40
2022-07-25T03:18:34.404Z,9.85
2022-07-25T03:21:01.055Z,9.88
2022-07-25T03:23:28.273Z,10.60
2022-07-25T03:25:55.669Z,9.85
2022-07-25T03:28:22.485Z,9.25
2022-07-25T03:30:49.084Z,9.75
2022-07-25T03:33:15.685Z,10.05
2022-07-25T03:35:42.358Z,9.80
2022-07-25T03:38:08.960Z,10.35
2022-07-25T03:40:36.444Z,9.82
2022-07-25T03:43:03.084Z,10.77
2022-07-25T03:45:29.779Z,10.68
2022-07-25T03:47:56.420Z,10.15
2022-07-25T03:50:23.038Z,10.68
2022-07-25T03:52:49.673Z,9.90
2022-07-25T03:55:16.305Z,9.90
2022-07-25T03:57:43.169Z,10.35
2022-07-25T04:00:10.425Z,10.40
2022-07-25T04:02:39.935Z,10.18
2022-07-25T04:05:07.362Z,10.48
2022-07-25T04:07:34.298Z,9.98
2022-07-25T04:10:01.721Z,9.70
2022-07-25T04:12:28.335Z,10.48
2022-07-25T04:14:54.968Z,10.10
2022-07-25T04:17:21.688Z,9.18
2022-07-25T04:19:48.407Z,9.75
2022-07-25T04:22:15.763Z,9.98
2022-07-25T04:24:42.383Z,9.27
2022-07-25T04:27:09.018Z,9.10
2022-07-25T04:29:35.648Z,9.05
2022-07-25T04:32:02.345Z,37.90
2022-07-25T04:34:29.022Z,11.05
2022-07-25T04:36:55.645Z,9.88
2022-07-25T04:39:22.233Z,10.15
2022-07-25T04:41:48.957Z,9.10
2022-07-25T04:44:15.647Z,8.98
2022-07-25T04:46:42.410Z,9.25
2022-07-25T04:49:09.110Z,9.32
2022-07-25T04:51:35.786Z,9.32
2022-07-25T04:54:02.574Z,8.93
2022-07-25T04:56:29.315Z,8.85
2022-07-25T04:58:58.709Z,10.10
2022-07-25T05:01:28.553Z,9.50
2022-07-25T05:03:55.214Z,9.32
2022-07-25T05:06:21.897Z,9.68
2022-07-25T05:08:48.516Z,9.25
2022-07-25T05:11:15.113Z,9.65
2022-07-25T05:13:41.744Z,9.95
2022-07-25T05:16:08.627Z,9.07
2022-07-25T05:18:35.303Z,9.68
2022-07-25T05:21:01.922Z,9.45
2022-07-25T05:23:28.553Z,9.18
2022-07-25T05:25:55.261Z,9.60
2022-07-25T05:28:21.887Z,9.90
2022-07-25T05:30:48.510Z,9.80
2022-07-25T05:33:15.121Z,9.63
2022-07-25T05:35:41.904Z,9.43
2022-07-25T05:38:08.524Z,9.30
2022-07-25T05:40:35.144Z,9.52
2022-07-25T05:43:03.505Z,8.75
2022-07-25T05:45:30.754Z,8.93
2022-07-25T05:47:57.400Z,9.05
2022-07-25T05:50:24.080Z,8.65
2022-07-25T05:52:50.841Z,8.18
2022-07-25T05:55:17.747Z,9.02
2022-07-25T05:57:44.402Z,8.90
2022-07-25T06:00:11.485Z,8.95
2022-07-25T06:02:38.310Z,8.07
2022-07-25T06:05:05.349Z,7.95
2022-07-25T06:07:31.973Z,8.23
2022-07-25T06:09:58.625Z,7.95
2022-07-25T06:12:25.264Z,8.05
2022-07-25T06:14:52.127Z,7.60
2022-07-25T06:17:18.866Z,7.70
2022-07-25T06:19:45.499Z,7.55
2022-07-25T06:22:12.550Z,7.30
2022-07-25T06:24:41.328Z,7.07
2022-07-25T06:27:08.451Z,6.80
2022-07-25T06:29:35.077Z,7.50
2022-07-25T06:32:01.847Z,6.63
2022-07-25T06:34:28.953Z,6.60
2022-07-25T06:36:57.378Z,6.32
2022-07-25T06:39:24.691Z,5.68
2022-07-25T06:41:51.458Z,6.28
2022-07-25T06:44:18.080Z,6.20
2022-07-25T06:46:44.749Z,6.03
2022-07-25T06:49:11.468Z,5.28
2022-07-25T06:51:38.172Z,5.15
2022-07-25T06:54:05.092Z,5.00
2022-07-25T06:56:32.878Z,4.90
2022-07-25T06:58:59.890Z,5.05
2022-07-25T07:01:26.696Z,5.53
2022-07-25T07:03:53.502Z,4.85
2022-07-25T07:06:20.184Z,5.25
2022-07-25T07:08:46.897Z,5.00
2022-07-25T07:11:15.214Z,4.82
2022-07-25T07:13:41.835Z,5.35
2022-07-25T07:16:08.729Z,4.72
2022-07-25T07:18:35.433Z,5.00
2022-07-25T07:21:02.045Z,4.80
2022-07-25T07:23:28.994Z,5.05
2022-07-25T07:25:56.079Z,4.97
2022-07-25T07:28:22.764Z,5.03
2022-07-25T07:33:37.604Z,4.90
2022-07-25T07:36:04.426Z,5.10
2022-07-25T07:38:31.034Z,4.85
2022-07-25T07:40:57.672Z,5.05
2022-07-25T07:43:29.617Z,5.15
2022-07-25T07:46:00.457Z,4.72
2022-07-25T07:48:28.180Z,4.75
2022-07-25T07:50:54.866Z,4.70
2022-07-25T07:53:21.535Z,5.15
2022-07-25T07:55:49.801Z,5.47
2022-07-25T07:58:17.446Z,5.40
2022-07-25T08:00:45.308Z,5.05
2022-07-25T08:03:11.998Z,5.38
2022-07-25T08:05:43.125Z,5.07
2022-07-25T08:08:10.989Z,5.50
2022-07-25T08:10:39.870Z,4.95
2022-07-25T08:13:16.472Z,4.88
2022-07-25T08:15:44.097Z,4.80
2022-07-25T08:18:18.026Z,5.13
2022-07-25T08:20:46.174Z,4.72
2022-07-25T08:23:12.828Z,4.57
2022-07-25T08:25:39.474Z,5.25
2022-07-25T08:28:08.752Z,5.03
2022-07-25T08:30:35.826Z,5.38
2022-07-25T08:33:04.505Z,5.20
2022-07-25T08:35:31.554Z,5.40
2022-07-25T08:37:59.092Z,5.07
2022-07-25T08:40:26.657Z,4.97
2022-07-25T08:42:54.960Z,5.05
2022-07-25T08:45:21.689Z,4.70
2022-07-25T08:47:49.909Z,4.80
2022-07-25T08:50:18.168Z,5.28
2022-07-25T08:52:45.661Z,4.90
2022-07-25T08:55:15.610Z,4.85
2022-07-25T08:57:43.918Z,5.07
2022-07-25T09:00:14.162Z,5.47
2022-07-25T09:02:40.936Z,5.40
2022-07-25T09:05:08.588Z,5.00
2022-07-25T09:07:39.575Z,5.50
2022-07-25T09:10:21.259Z,4.85
2022-07-25T09:12:55.892Z,5.60
2022-07-25T09:15:30.510Z,5.22
2022-07-25T09:17:59.385Z,5.30
2022-07-25T09:20:43.193Z,5.45
2022-07-25T09:23:14.385Z,5.30
2022-07-25T09:25:42.482Z,5.50
2022-07-25T09:28:19.189Z,5.65
2022-07-25T09:30:56.385Z,5.97
2022-07-25T09:33:23.863Z,5.68
2022-07-25T09:35:50.589Z,5.28
2022-07-25T09:38:17.615Z,5.22
2022-07-25T09:40:55.157Z,5.43
2022-07-25T09:43:23.090Z,5.15
2022-07-25T09:45:52.848Z,5.35
2022-07-25T09:48:20.939Z,5.55
2022-07-25T09:50:47.624Z,5.53
2022-07-25T09:53:14.308Z,5.85
2022-07-25T09:55:41.247Z,5.90
2022-07-25T09:58:07.886Z,5.03
2022-07-25T10:00:34.495Z,5.40
2022-07-25T10:03:05.543Z,5.05
2022-07-25T10:05:59.423Z,5.78
2022-07-25T10:08:26.063Z,6.18
2022-07-25T10:10:52.682Z,5.53
2022-07-25T10:13:29.551Z,5.00
2022-07-25T10:15:56.192Z,5.40
2022-07-25T10:18:27.517Z,5.72
2022-07-25T10:20:56.182Z,5.38
2022-07-25T10:23:27.777Z,5.65
2022-07-25T10:26:11.265Z,5.68
2022-07-25T10:28:43.411Z,5.00
2022-07-25T10:31:21.944Z,5.43
2022-07-25T10:33:59.444Z,5.07
2022-07-25T10:36:46.429Z,5.25
2022-07-25T10:39:15.101Z,5.10
2022-07-25T10:41:44.911Z,5.60
2022-07-25T10:44:15.478Z,5.43
2022-07-25T10:46:44.718Z,4.30
2022-07-25T10:49:19.571Z,4.63
2022-07-25T10:51:59.347Z,4.60
2022-07-25T10:54:25.968Z,4.95
2022-07-25T10:56:53.797Z,4.40
2022-07-25T10:59:37.149Z,4.65
2022-07-25T11:02:05.042Z,4.55
2022-07-25T11:04:32.053Z,4.50
2022-07-25T11:07:07.498Z,4.50
2022-07-25T11:09:34.322Z,4.50
2022-07-25T11:12:01.293Z,4.63
2022-07-25T11:14:37.372Z,4.30
2022-07-25T11:17:14.669Z,4.25
2022-07-25T11:19:42.809Z,4.57
2022-07-25T11:22:09.441Z,4.60
2022-07-25T11:24:43.006Z,4.20
2022-07-25T11:27:11.744Z,4.25
2022-07-25T11:29:39.817Z,4.03
2022-07-25T11:32:10.504Z,4.20
2022-07-25T11:34:46.905Z,4.15
2022-07-25T11:37:14.420Z,4.43
2022-07-25T11:39:42.417Z,4.30
2022-07-25T11:42:17.244Z,4.63
2022-07-25T11:44:48.535Z,4.47
2022-07-25T11:47:30.983Z,3.83
2022-07-25T11:50:02.213Z,3.55
2022-07-25T11:52:33.350Z,3.80
2022-07-25T11:55:04.426Z,3.40
2022-07-25T11:57:41.611Z,4.05
2022-07-25T12:00:16.177Z,4.00
2022-07-25T12:02:43.035Z,4.18
2022-07-25T12:05:12.382Z,4.30
2022-07-25T12:07:45.762Z,5.15
2022-07-25T12:10:16.839Z,5.05
2022-07-25T12:12:53.453Z,4.50
2022-07-25T12:15:27.813Z,5.00
2022-07-25T12:17:55.603Z,5.00
2022-07-25T12:20:23.089Z,4.32
2022-07-25T12:22:51.901Z,4.60
2022-07-25T12:25:18.546Z,5.30
2022-07-25T12:27:45.401Z,4.65
2022-07-25T12:30:12.726Z,4.80
2022-07-25T12:32:39.498Z,4.80
2022-07-25T12:35:07.109Z,5.22
2022-07-25T12:37:33.895Z,4.95
2022-07-25T12:40:00.563Z,4.68
2022-07-25T12:42:28.634Z,4.47
2022-07-25T12:44:55.901Z,4.65
2022-07-25T12:47:23.333Z,4.47
2022-07-25T12:49:50.569Z,4.43
2022-07-25T12:52:17.206Z,4.55
2022-07-25T12:54:44.238Z,4.60
2022-07-25T12:57:11.313Z,4.22
2022-07-25T12:59:38.069Z,3.85
2022-07-25T13:02:04.848Z,4.30
2022-07-25T13:04:31.769Z,4.50
2022-07-25T13:06:58.823Z,4.15
2022-07-25T13:09:25.901Z,4.70
2022-07-25T13:11:52.763Z,4.65
2022-07-25T13:14:19.390Z,4.75
2022-07-25T13:16:46.520Z,4.40
2022-07-25T13:19:13.382Z,4.50
2022-07-25T13:21:40.081Z,4.47
2022-07-25T13:24:07.249Z,4.07
2022-07-25T13:26:34.067Z,4.25
2022-07-25T13:29:00.789Z,3.92
2022-07-25T13:31:27.768Z,4.22
2022-07-25T13:33:54.464Z,3.70
2022-07-25T13:36:21.127Z,4.47
2022-07-25T13:38:47.840Z,4.10
2022-07-25T13:41:14.526Z,4.20
2022-07-25T13:43:43.081Z,4.20
2022-07-25T13:46:09.853Z,4.40
2022-07-25T13:48:36.965Z,4.07
2022-07-25T13:51:04.053Z,3.83
2022-07-25T13:53:30.900Z,3.67
2022-07-25T13:55:58.785Z,4.72
2022-07-25T13:58:25.943Z,4.05
2022-07-25T14:00:52.845Z,4.20
2022-07-25T14:03:19.604Z,3.80
2022-07-25T14:05:46.262Z,3.85
2022-07-25T14:08:12.988Z,3.78
2022-07-25T14:10:39.622Z,4.00
2022-07-25T14:13:06.305Z,3.70
2022-07-25T14:15:32.925Z,4.20
2022-07-25T14:17:59.599Z,3.88
2022-07-25T14:20:26.234Z,3.90
2022-07-25T14:22:52.898Z,4.40
2022-07-25T14:25:19.557Z,4.05
2022-07-25T14:27:46.216Z,3.50
2022-07-25T14:30:13.023Z,3.97
2022-07-25T14:32:39.650Z,3.58
2022-07-25T14:35:06.678Z,3.72
2022-07-25T14:37:33.638Z,4.05
2022-07-25T14:40:01.640Z,4.05
2022-07-25T14:42:28.348Z,4.15
2022-07-25T14:44:55.015Z,3.90
2022-07-25T14:47:21.957Z,4.00
2022-07-25T14:49:48.727Z,3.90
2022-07-25T14:52:15.753Z,3.97
2022-07-25T14:54:42.408Z,3.60
2022-07-25T14:57:09.670Z,4.00
2022-07-25T14:59:36.402Z,4.10
2022-07-25T15:02:03.764Z,4.25
2022-07-25T15:04:30.435Z,3.90
2022-07-25T15:06:57.139Z,4.13
2022-07-25T15:09:23.767Z,4.38
2022-07-25T15:11:50.385Z,4.40
2022-07-25T15:14:17.001Z,3.92
2022-07-25T15:16:43.931Z,4.32
2022-07-25T15:19:16.301Z,3.78
2022-07-25T15:21:44.311Z,4.30
2022-07-25T15:24:10.953Z,4.32
2022-07-25T15:26:37.805Z,4.22
2022-07-25T15:29:07.903Z,4.25
2022-07-25T15:31:36.046Z,4.10
2022-07-25T15:34:02.755Z,4.47
2022-07-25T15:36:29.951Z,5.03
2022-07-25T15:38:56.788Z,4.63
2022-07-25T15:41:23.491Z,4.25
2022-07-25T15:43:50.117Z,4.10
2022-07-25T15:46:16.901Z,4.40
2022-07-25T15:48:44.372Z,4.47
2022-07-25T15:51:11.105Z,4.28
2022-07-25T15:53:37.707Z,4.28
2022-07-25T15:56:04.660Z,4.50
2022-07-25T15:58:31.496Z,7.28
2022-07-25T16:00:58.184Z,4.88
2022-07-25T16:03:24.883Z,4.20
2022-07-25T16:05:51.533Z,4.20
2022-07-25T16:08:18.155Z,4.25
2022-07-25T16:10:44.822Z,4.60
2022-07-25T16:13:11.461Z,4.45
2022-07-25T16:15:38.511Z,4.55
2022-07-25T16:18:05.128Z,4.40
2022-07-25T16:20:32.284Z,4.60
2022-07-25T16:22:59.617Z,5.88
2022-07-25T16:25:27.480Z,4.80
2022-07-25T16:27:54.193Z,5.65
2022-07-25T16:30:21.222Z,5.18
2022-07-25T16:32:47.872Z,5.47
2022-07-25T16:35:14.553Z,4.88
2022-07-25T16:37:41.753Z,5.35
2022-07-25T16:40:08.900Z,5.70
2022-07-25T16:42:35.809Z,6.18
2022-07-25T16:45:02.547Z,5.80
2022-07-25T16:47:29.149Z,5.22
2022-07-25T16:49:55.863Z,5.65
2022-07-25T16:52:22.835Z,5.40
2022-07-25T16:54:49.772Z,5.00
2022-07-25T16:57:16.409Z,4.65
2022-07-25T16:59:43.042Z,4.60
2022-07-25T17:02:09.754Z,4.25
2022-07-25T17:04:37.458Z,4.78
2022-07-25T17:07:04.117Z,4.55
2022-07-25T17:09:30.764Z,4.78
2022-07-25T17:11:57.948Z,4.53
2022-07-25T17:14:29.999Z,4.60
2022-07-25T17:16:57.043Z,4.22
2022-07-25T17:19:23.711Z,4.15
2022-07-25T17:21:50.347Z,4.47
2022-07-25T17:24:16.987Z,4.78
2022-07-25T17:26:43.635Z,4.43
2022-07-25T17:29:10.652Z,4.32
2022-07-25T17:31:37.581Z,4.25
2022-07-25T17:34:04.311Z,3.90
2022-07-25T17:36:30.924Z,3.67
2022-07-25T17:38:57.624Z,3.50
2022-07-25T17:41:24.270Z,3.25
2022-07-25T17:43:50.907Z,3.22
2022-07-25T17:46:17.617Z,3.08
2022-07-25T17:48:44.480Z,3.60
2022-07-25T17:51:11.922Z,3.55
2022-07-25T17:53:38.573Z,3.15
2022-07-25T17:56:05.322Z,3.05
2022-07-25T17:58:32.150Z,3.13
2022-07-25T18:01:01.384Z,2.90
2022-07-25T18:03:28.902Z,2.40
2022-07-25T18:05:55.663Z,2.35
2022-07-25T18:08:22.539Z,2.30
2022-07-25T18:10:49.838Z,2.30
2022-07-25T18:13:21.918Z,2.22
2022-07-25T18:15:50.285Z,2.28
2022-07-25T18:18:20.382Z,2.47
2022-07-25T18:20:47.602Z,2.03
2022-07-25T18:23:14.407Z,2.33
2022-07-25T18:25:41.052Z,2.10
2022-07-25T18:28:07.662Z,2.35
2022-07-25T18:30:34.354Z,2.50
2022-07-25T18:33:00.949Z,2.15
2022-07-25T18:35:27.578Z,2.10
2022-07-25T18:37:54.321Z,2.20
2022-07-25T18:40:21.552Z,2.40
2022-07-25T18:42:48.191Z,2.20
2022-07-25T18:45:15.517Z,2.30
2022-07-25T18:47:42.202Z,1.90
2022-07-25T18:50:09.166Z,2.55
2022-07-25T18:52:36.276Z,2.45
2022-07-25T18:55:04.431Z,2.10
2022-07-25T18:57:31.150Z,2.00
2022-07-25T19:00:02.591Z,3.22
2022-07-25T19:02:29.942Z,2.15
2022-07-25T19:04:56.635Z,2.28
2022-07-25T19:07:23.434Z,2.35
2022-07-25T19:09:50.050Z,2.35
2022-07-25T19:12:16.665Z,2.28
2022-07-25T19:14:44.002Z,2.17
2022-07-25T19:17:10.690Z,1.85
2022-07-25T19:19:37.425Z,2.25
2022-07-25T19:22:04.072Z,2.13
2022-07-25T19:24:31.354Z,2.05
2022-07-25T19:26:58.814Z,1.98
2022-07-25T19:29:26.561Z,1.67
2022-07-25T19:31:53.267Z,1.90
2022-07-25T19:34:19.942Z,2.03
2022-07-25T19:36:46.557Z,1.77
2022-07-25T19:39:13.179Z,1.88
2022-07-25T19:41:44.714Z,1.88
2022-07-25T19:44:13.257Z,1.90
2022-07-25T19:46:40.052Z,2.17
2022-07-25T19:49:06.839Z,2.00
2022-07-25T19:51:33.595Z,2.13
2022-07-25T19:54:03.262Z,2.00
2022-07-25T19:56:30.872Z,2.10
2022-07-25T19:58:58.106Z,1.80
2022-07-25T20:01:24.803Z,1.77
2022-07-25T20:03:51.511Z,2.28
2022-07-25T20:06:20.501Z,2.10
2022-07-25T20:08:47.832Z,3.08
2022-07-25T20:11:14.979Z,2.00
2022-07-25T20:13:41.649Z,1.80
2022-07-25T20:16:08.247Z,2.15
2022-07-25T20:18:34.885Z,2.03
2022-07-25T20:21:01.491Z,2.17
2022-07-25T20:23:28.166Z,6.38
2022-07-25T20:25:54.877Z,1.85
2022-07-25T20:28:21.633Z,2.17
2022-07-25T20:30:49.527Z,2.03
2022-07-25T20:33:17.191Z,1.98
2022-07-25T20:35:43.811Z,1.95
2022-07-25T20:38:10.505Z,4.30
2022-07-25T20:40:43.841Z,2.28
2022-07-25T20:43:14.970Z,2.20
2022-07-25T20:45:41.634Z,2.10
2022-07-25T20:48:08.272Z,2.30
2022-07-25T20:50:37.054Z,2.60
2022-07-25T20:53:04.541Z,2.30
2022-07-25T20:55:31.238Z,2.63
2022-07-25T20:57:58.137Z,1.80
2022-07-25T21:00:27.340Z,1.90
2022-07-25T21:02:54.198Z,2.58
2022-07-25T21:05:21.213Z,2.25
2022-07-25T21:07:47.848Z,3.70
2022-07-25T21:10:14.624Z,2.53
2022-07-25T21:12:41.244Z,2.00
2022-07-25T21:15:08.330Z,2.00
2022-07-25T21:17:35.028Z,2.17
2022-07-25T21:20:01.658Z,2.28
2022-07-25T21:22:28.286Z,2.90
2022-07-25T21:24:54.966Z,3.92
2022-07-25T21:27:22.429Z,2.13
2022-07-25T21:29:49.044Z,2.22
2022-07-25T21:32:17.156Z,1.95
2022-07-25T21:34:45.509Z,2.15
2022-07-25T21:37:12.791Z,2.25
2022-07-25T21:39:39.456Z,2.20
2022-07-25T21:42:09.671Z,2.10
2022-07-25T21:47:06.777Z,2.40
2022-07-25T21:49:52.269Z,2.25
2022-07-25T21:52:19.083Z,2.20
2022-07-25T21:54:56.738Z,2.50
2022-07-25T21:57:23.365Z,2.60
2022-07-25T21:59:50.082Z,2.30
2022-07-25T22:02:16.782Z,2.50
2022-07-25T22:04:43.406Z,2.33
2022-07-25T22:07:10.063Z,2.47
2022-07-25T22:09:36.719Z,2.60
2022-07-25T22:12:03.609Z,11.13
2022-07-25T22:14:30.221Z,15.95
2022-07-25T22:16:56.900Z,3.40
2022-07-25T22:19:23.567Z,2.53
2022-07-25T22:21:50.512Z,2.28
2022-07-25T22:24:17.141Z,2.20
2022-07-25T22:26:43.788Z,2.08
2022-07-25T22:29:11.161Z,2.50
2022-07-25T22:31:40.834Z,2.20
2022-07-25T22:34:08.230Z,2.15
2022-07-25T22:36:34.827Z,2.83
2022-07-25T22:39:01.462Z,2.50
2022-07-25T22:41:28.076Z,2.45
2022-07-25T22:43:59.043Z,2.35
2022-07-25T22:46:29.407Z,2.63
2022-07-25T22:48:56.550Z,2.22
2022-07-25T22:51:23.398Z,2.50
2022-07-25T22:53:50.145Z,2.60
2022-07-25T22:56:16.896Z,2.47
2022-07-25T22:58:43.527Z,2.45
2022-07-25T23:01:12.551Z,2.35
2022-07-25T23:03:39.216Z,2.92
2022-07-25T23:06:06.234Z,2.58
2022-07-25T23:08:32.850Z,2.53
2022-07-25T23:10:59.548Z,2.92
2022-07-25T23:13:26.171Z,2.70
2022-07-25T23:15:52.816Z,2.83
2022-07-25T23:18:19.632Z,3.00
2022-07-25T23:20:46.286Z,2.50
2022-07-25T23:23:13.075Z,2.60
2022-07-25T23:25:39.750Z,2.75
2022-07-25T23:28:06.393Z,2.45
2022-07-25T23:30:38.047Z,2.38
2022-07-25T23:33:08.390Z,3.05
2022-07-25T23:35:35.284Z,2.15
2022-07-25T23:38:02.141Z,2.70
2022-07-25T23:40:28.772Z,2.10
2022-07-25T23:42:55.453Z,2.72
2022-07-25T23:45:22.464Z,2.30
2022-07-25T23:47:54.729Z,2.38
2022-07-25T23:50:22.158Z,2.78
2022-07-25T23:52:48.757Z,2.50
2022-07-25T23:55:15.399Z,2.60
2022-07-25T23:57:42.086Z,2.60
